createdAt,value
2022-08-21T00:00:25.326Z,74.80
2022-08-21T00:03:05.383Z,74.13
2022-08-21T00:05:36.217Z,74.87
2022-08-21T00:08:03.872Z,74.99
2022-08-21T00:10:30.524Z,75.08
2022-08-21T00:12:57.373Z,74.76
2022-08-21T00:15:27.593Z,74.41
2022-08-21T00:17:54.891Z,74.93
2022-08-21T00:20:22.565Z,74.55
2022-08-21T00:22:50.139Z,74.48
2022-08-21T00:25:19.827Z,74.29
2022-08-21T00:27:51.181Z,74.48
2022-08-21T00:30:22.769Z,74.62
2022-08-21T00:32:50.813Z,74.84
2022-08-21T00:35:21.660Z,74.50
2022-08-21T00:37:48.368Z,75.19
2022-08-21T00:40:18.471Z,74.37
2022-08-21T00:42:53.339Z,74.95
2022-08-21T00:45:20.776Z,74.70
2022-08-21T00:47:47.517Z,75.09
2022-08-21T00:50:21.547Z,74.54
2022-08-21T00:52:52.058Z,74.26
2022-08-21T00:55:20.976Z,73.97
2022-08-21T00:57:54.058Z,73.87
2022-08-21T01:00:28.228Z,73.76
2022-08-21T01:02:55.099Z,73.85
2022-08-21T01:05:21.921Z,73.87
2022-08-21T01:07:51.572Z,73.63
2022-08-21T01:10:24.058Z,73.73
2022-08-21T01:12:53.726Z,73.77
2022-08-21T01:15:22.857Z,73.69
2022-08-21T01:17:50.478Z,73.72
2022-08-21T01:20:17.095Z,73.74
2022-08-21T01:22:44.042Z,73.61
2022-08-21T01:25:12.783Z,73.74
2022-08-21T01:27:39.981Z,73.62
2022-08-21T01:30:18.966Z,72.94
2022-08-21T01:32:45.985Z,73.60
2022-08-21T01:35:15.351Z,73.34
2022-08-21T01:37:42.785Z,73.68
2022-08-21T01:40:10.430Z,73.79
2022-08-21T01:42:37.971Z,73.83
2022-08-21T01:45:06.233Z,73.47
2022-08-21T01:47:32.896Z,73.66
2022-08-21T01:49:59.788Z,73.85
2022-08-21T01:52:27.081Z,73.90
2022-08-21T01:54:55.235Z,73.85
2022-08-21T01:57:22.799Z,74.21
2022-08-21T01:59:52.984Z,74.04
2022-08-21T02:02:19.871Z,73.90
2022-08-21T02:08:04.237Z,74.51
2022-08-21T02:10:32.922Z,74.31
2022-08-21T02:13:00.286Z,74.17
2022-08-21T02:15:29.136Z,74.40
2022-08-21T02:17:58.341Z,74.14
2022-08-21T02:20:31.878Z,73.28
2022-08-21T02:22:58.767Z,73.84
2022-08-21T02:25:26.911Z,73.77
2022-08-21T02:27:54.376Z,73.71
2022-08-21T02:30:25.242Z,73.39
2022-08-21T02:32:52.407Z,73.39
2022-08-21T02:35:19.567Z,73.25
2022-08-21T02:37:53.151Z,72.83
2022-08-21T02:40:23.095Z,73.14
2022-08-21T02:42:49.678Z,73.30
2022-08-21T02:45:18.680Z,73.10
2022-08-21T02:48:02.009Z,72.36
2022-08-21T02:50:34.520Z,72.70
2022-08-21T02:53:01.233Z,73.17
2022-08-21T02:55:30.975Z,73.05
2022-08-21T02:57:58.963Z,72.83
2022-08-21T03:00:28.373Z,73.11
2022-08-21T03:02:55.651Z,72.99
2022-08-21T03:05:23.424Z,73.01
2022-08-21T03:07:50.655Z,73.12
2022-08-21T03:10:17.644Z,73.11
2022-08-21T03:12:44.211Z,73.35
2022-08-21T03:15:13.517Z,73.25
2022-08-21T03:17:40.668Z,73.04
2022-08-21T03:20:08.952Z,73.17
2022-08-21T03:22:35.760Z,72.71
2022-08-21T03:25:05.742Z,72.96
2022-08-21T03:27:33.843Z,73.04
2022-08-21T03:30:02.040Z,73.12
2022-08-21T03:32:28.646Z,73.03
2022-08-21T03:34:55.358Z,73.10
2022-08-21T03:37:21.939Z,73.04
2022-08-21T03:39:48.514Z,72.98
2022-08-21T03:42:15.159Z,72.70
2022-08-21T03:44:41.720Z,72.78
2022-08-21T03:47:08.832Z,72.85
2022-08-21T03:49:35.402Z,72.69
2022-08-21T03:52:02.148Z,72.58
2022-08-21T03:54:28.884Z,72.75
2022-08-21T03:56:55.868Z,72.77
2022-08-21T03:59:22.953Z,72.95
2022-08-21T04:01:58.637Z,72.34
2022-08-21T04:04:26.453Z,72.69
2022-08-21T04:06:53.310Z,73.06
2022-08-21T04:09:19.931Z,73.05
2022-08-21T04:11:46.875Z,73.02
2022-08-21T04:14:14.348Z,73.00
2022-08-21T04:16:42.411Z,73.09
2022-08-21T04:19:09.326Z,72.58
2022-08-21T04:21:38.065Z,73.21
2022-08-21T04:24:06.521Z,73.21
2022-08-21T04:26:33.052Z,73.39
2022-08-21T04:28:59.572Z,73.70
2022-08-21T04:31:26.218Z,73.74
2022-08-21T04:33:52.887Z,73.69
2022-08-21T04:36:22.999Z,73.75
2022-08-21T04:38:51.206Z,73.81
2022-08-21T04:41:18.454Z,73.87
2022-08-21T04:43:54.810Z,73.92
2022-08-21T04:46:21.855Z,74.22
2022-08-21T04:48:48.455Z,74.36
2022-08-21T04:51:37.651Z,73.10
2022-08-21T04:54:13.125Z,74.21
2022-08-21T04:56:54.030Z,72.73
2022-08-21T04:59:25.271Z,73.50
2022-08-21T05:01:52.409Z,74.16
2022-08-21T05:04:25.886Z,73.39
2022-08-21T05:06:55.637Z,73.96
2022-08-21T05:09:23.245Z,74.55
2022-08-21T05:11:50.283Z,74.74
2022-08-21T05:14:16.876Z,74.72
2022-08-21T05:16:43.517Z,75.00
2022-08-21T05:19:10.851Z,75.31
2022-08-21T05:21:44.506Z,74.75
2022-08-21T05:24:11.530Z,75.69
2022-08-21T05:26:46.260Z,75.75
2022-08-21T05:29:16.344Z,75.64
2022-08-21T05:31:43.868Z,76.11
2022-08-21T05:34:10.584Z,76.13
2022-08-21T05:36:37.218Z,76.19
2022-08-21T05:39:04.476Z,75.94
2022-08-21T05:41:31.177Z,75.98
2022-08-21T05:44:00.928Z,76.30
2022-08-21T05:46:27.582Z,76.12
2022-08-21T05:48:54.168Z,76.30
2022-08-21T05:51:21.042Z,76.35
2022-08-21T05:53:47.653Z,76.00
2022-08-21T05:56:14.494Z,76.29
2022-08-21T05:58:42.238Z,76.19
2022-08-21T06:01:09.027Z,76.48
2022-08-21T06:03:39.135Z,76.07
2022-08-21T06:06:06.048Z,76.42
2022-08-21T06:08:32.895Z,76.29
2022-08-21T06:11:02.026Z,76.27
2022-08-21T06:13:29.622Z,76.51
2022-08-21T06:16:08.097Z,74.57
2022-08-21T06:18:36.789Z,76.31
2022-08-21T06:21:03.980Z,76.26
2022-08-21T06:23:31.779Z,76.29
2022-08-21T06:26:00.798Z,76.51
2022-08-21T06:28:27.804Z,76.14
2022-08-21T06:30:55.001Z,76.27
2022-08-21T06:33:21.549Z,75.97
2022-08-21T06:35:48.143Z,76.01
2022-08-21T06:38:14.945Z,75.57
2022-08-21T06:40:43.912Z,75.68
2022-08-21T06:43:17.660Z,75.04
2022-08-21T06:45:44.965Z,75.03
2022-08-21T06:48:15.636Z,75.22
2022-08-21T06:50:45.148Z,74.88
2022-08-21T06:53:14.304Z,74.90
2022-08-21T06:55:41.729Z,75.21
2022-08-21T06:58:08.866Z,74.88
2022-08-21T07:00:37.013Z,74.18
2022-08-21T07:03:03.585Z,74.02
2022-08-21T07:05:31.287Z,73.95
2022-08-21T07:07:58.305Z,73.94
2022-08-21T07:10:27.135Z,73.65
2022-08-21T07:13:00.540Z,73.93
2022-08-21T07:15:32.324Z,73.20
2022-08-21T07:18:00.146Z,73.71
2022-08-21T07:20:28.975Z,73.95
2022-08-21T07:22:57.497Z,74.07
2022-08-21T07:25:24.355Z,74.06
2022-08-21T07:27:50.908Z,73.55
2022-08-21T07:30:17.600Z,73.46
2022-08-21T07:32:44.287Z,73.40
2022-08-21T07:35:11.115Z,73.24
2022-08-21T07:37:37.961Z,73.22
2022-08-21T07:40:05.259Z,72.66
2022-08-21T07:42:31.963Z,72.31
2022-08-21T07:44:58.568Z,72.00
2022-08-21T07:47:29.446Z,71.16
2022-08-21T07:50:08.912Z,71.24
2022-08-21T07:52:35.508Z,70.33
2022-08-21T07:55:06.109Z,70.51
2022-08-21T07:57:33.719Z,70.59
2022-08-21T08:00:00.509Z,70.32
2022-08-21T08:02:30.442Z,69.76
2022-08-21T08:05:08.590Z,67.43
2022-08-21T08:07:35.295Z,69.64
2022-08-21T08:10:03.125Z,69.67
2022-08-21T08:12:29.719Z,69.25
2022-08-21T08:15:01.039Z,66.83
2022-08-21T08:17:28.446Z,69.04
2022-08-21T08:19:55.478Z,68.38
2022-08-21T08:22:23.910Z,68.74
2022-08-21T08:24:52.161Z,69.35
2022-08-21T08:27:19.192Z,69.85
2022-08-21T08:29:46.708Z,69.51
2022-08-21T08:32:13.491Z,69.95
2022-08-21T08:34:40.693Z,67.42
2022-08-21T08:37:09.503Z,67.16
2022-08-21T08:39:36.609Z,66.96
2022-08-21T08:42:32.648Z,61.72
2022-08-21T08:45:06.483Z,65.18
2022-08-21T08:47:37.655Z,65.60
2022-08-21T08:50:11.778Z,64.95
2022-08-21T08:52:46.552Z,65.31
2022-08-21T08:55:26.659Z,66.69
2022-08-21T08:57:55.355Z,66.77
2022-08-21T09:00:24.472Z,66.06
2022-08-21T09:02:55.116Z,60.78
2022-08-21T09:05:31.746Z,62.41
2022-08-21T09:08:23.068Z,64.40
2022-08-21T09:11:22.172Z,65.83
2022-08-21T09:14:03.754Z,63.96
2022-08-21T09:16:42.598Z,63.02
2022-08-21T09:19:33.694Z,64.28
2022-08-21T09:22:29.566Z,65.94
2022-08-21T09:25:14.551Z,66.60
2022-08-21T09:27:41.172Z,66.50
2022-08-21T09:30:08.818Z,65.79
2022-08-21T09:32:38.217Z,66.53
2022-08-21T09:35:21.484Z,65.25
2022-08-21T09:37:55.007Z,62.83
2022-08-21T09:40:37.620Z,59.05
2022-08-21T09:43:16.901Z,60.33
2022-08-21T09:45:45.066Z,62.29
2022-08-21T09:48:11.635Z,61.91
2022-08-21T09:50:38.344Z,62.49
2022-08-21T09:53:05.674Z,62.82
2022-08-21T09:55:38.903Z,61.69
2022-08-21T09:58:08.663Z,62.42
2022-08-21T10:00:36.811Z,61.77
2022-08-21T10:03:13.312Z,59.12
2022-08-21T10:05:41.034Z,62.47
2022-08-21T10:08:18.662Z,60.46
2022-08-21T10:10:45.862Z,61.27
2022-08-21T10:13:24.628Z,57.57
2022-08-21T10:16:20.325Z,61.57
2022-08-21T10:19:11.798Z,58.24
2022-08-21T10:21:49.091Z,60.00
2022-08-21T10:24:31.028Z,56.69
2022-08-21T10:27:34.618Z,59.29
2022-08-21T10:30:13.742Z,56.42
2022-08-21T10:32:51.725Z,53.02
2022-08-21T10:35:25.420Z,55.56
2022-08-21T10:38:28.114Z,51.52
2022-08-21T10:41:16.205Z,49.48
2022-08-21T10:44:04.467Z,53.90
2022-08-21T10:46:31.137Z,50.68
2022-08-21T10:49:14.959Z,52.85
2022-08-21T10:51:58.526Z,51.71
2022-08-21T10:54:34.426Z,52.10
2022-08-21T10:57:09.237Z,52.65
2022-08-21T10:59:46.915Z,48.71
2022-08-21T11:02:20.639Z,52.98
2022-08-21T11:05:16.423Z,55.28
2022-08-21T11:07:58.988Z,53.37
2022-08-21T11:10:36.810Z,51.50
2022-08-21T11:13:39.778Z,50.20
2022-08-21T11:16:15.121Z,52.36
2022-08-21T11:18:50.081Z,49.96
2022-08-21T11:21:25.613Z,50.76
2022-08-21T11:24:18.068Z,50.38
2022-08-21T11:26:53.354Z,51.93
2022-08-21T11:29:30.394Z,49.84
2022-08-21T11:32:02.644Z,48.68
2022-08-21T11:34:47.368Z,51.66
2022-08-21T11:37:42.534Z,51.41
2022-08-21T11:40:22.399Z,50.45
2022-08-21T11:43:17.892Z,51.92
2022-08-21T11:45:55.599Z,45.09
2022-08-21T11:48:28.041Z,48.95
2022-08-21T11:50:56.239Z,49.33
2022-08-21T11:54:08.846Z,50.94
2022-08-21T11:56:42.803Z,49.37
2022-08-21T11:59:14.816Z,48.06
2022-08-21T12:01:46.532Z,48.98
2022-08-21T12:04:28.275Z,49.23
2022-08-21T12:06:56.585Z,48.26
2022-08-21T12:09:26.343Z,49.69
2022-08-21T12:12:13.041Z,51.19
2022-08-21T12:14:48.340Z,49.87
2022-08-21T12:17:39.141Z,50.11
2022-08-21T12:20:20.925Z,50.49
2022-08-21T12:23:03.138Z,43.42
2022-08-21T12:26:00.717Z,43.89
2022-08-21T12:28:29.746Z,41.50
2022-08-21T12:30:58.227Z,44.04
2022-08-21T12:33:30.739Z,44.93
2022-08-21T12:36:13.102Z,43.88
2022-08-21T12:38:48.586Z,44.60
2022-08-21T12:41:21.934Z,44.79
2022-08-21T12:43:59.016Z,45.90
2022-08-21T12:46:41.347Z,46.40
2022-08-21T12:49:19.498Z,44.96
2022-08-21T12:52:02.727Z,45.99
2022-08-21T12:54:33.337Z,45.18
2022-08-21T12:57:05.697Z,45.77
2022-08-21T12:59:33.420Z,47.46
2022-08-21T13:02:04.406Z,48.34
2022-08-21T13:04:38.674Z,48.07
2022-08-21T13:07:11.024Z,47.86
2022-08-21T13:09:50.684Z,48.05
2022-08-21T13:12:19.405Z,50.28
2022-08-21T13:14:47.605Z,50.32
2022-08-21T13:17:25.742Z,50.98
2022-08-21T13:20:02.801Z,47.89
2022-08-21T13:22:34.619Z,49.53
2022-08-21T13:25:06.944Z,48.16
2022-08-21T13:27:34.643Z,45.22
2022-08-21T13:30:07.572Z,45.52
2022-08-21T13:32:37.076Z,43.06
2022-08-21T13:35:16.373Z,44.92
2022-08-21T13:37:44.729Z,43.11
2022-08-21T13:40:16.750Z,42.41
2022-08-21T13:42:46.820Z,44.20
2022-08-21T13:45:30.859Z,40.63
2022-08-21T13:47:57.890Z,43.42
2022-08-21T13:50:27.696Z,44.44
2022-08-21T13:53:03.578Z,42.30
2022-08-21T13:55:40.005Z,42.45
2022-08-21T13:58:07.304Z,43.82
2022-08-21T14:00:36.819Z,45.46
2022-08-21T14:03:08.781Z,44.33
2022-08-21T14:05:45.356Z,45.00
2022-08-21T14:08:16.551Z,46.43
2022-08-21T14:10:57.195Z,46.93
2022-08-21T14:13:41.251Z,43.01
2022-08-21T14:16:44.734Z,45.38
2022-08-21T14:19:24.693Z,45.72
2022-08-21T14:21:51.449Z,46.38
2022-08-21T14:24:24.090Z,44.36
2022-08-21T14:26:57.095Z,46.62
2022-08-21T14:29:27.617Z,47.10
2022-08-21T14:32:01.346Z,47.63
2022-08-21T14:34:35.793Z,45.62
2022-08-21T14:37:02.719Z,43.30
2022-08-21T14:39:29.307Z,41.85
2022-08-21T14:41:57.422Z,40.67
2022-08-21T14:44:24.261Z,40.85
2022-08-21T14:46:55.898Z,42.88
2022-08-21T14:49:24.499Z,44.16
2022-08-21T14:51:54.176Z,44.46
2022-08-21T14:54:22.533Z,43.40
2022-08-21T14:57:00.489Z,44.62
2022-08-21T14:59:27.105Z,41.39
2022-08-21T15:01:53.661Z,40.71
2022-08-21T15:04:20.435Z,40.67
2022-08-21T15:06:47.032Z,42.04
2022-08-21T15:09:13.566Z,40.75
2022-08-21T15:11:42.522Z,41.77
2022-08-21T15:14:15.000Z,41.97
2022-08-21T15:16:41.809Z,42.69
2022-08-21T15:19:08.383Z,38.22
2022-08-21T15:21:34.919Z,39.77
2022-08-21T15:24:01.535Z,38.96
2022-08-21T15:26:28.351Z,39.91
2022-08-21T15:28:55.137Z,40.58
2022-08-21T15:31:21.768Z,39.08
2022-08-21T15:33:48.299Z,39.62
2022-08-21T15:36:14.879Z,39.59
2022-08-21T15:38:41.738Z,38.97
2022-08-21T15:41:08.771Z,38.01
2022-08-21T15:43:43.891Z,37.80
2022-08-21T15:46:14.043Z,36.40
2022-08-21T15:48:41.155Z,37.17
2022-08-21T15:51:11.077Z,33.08
2022-08-21T15:53:37.899Z,34.63
2022-08-21T15:56:04.774Z,36.92
2022-08-21T15:58:31.603Z,37.74
2022-08-21T16:01:02.420Z,37.76
2022-08-21T16:03:29.333Z,39.27
2022-08-21T16:05:55.970Z,35.95
2022-08-21T16:08:22.573Z,35.53
2022-08-21T16:10:49.810Z,36.19
2022-08-21T16:13:31.175Z,37.09
2022-08-21T16:15:57.827Z,36.62
2022-08-21T16:18:24.555Z,35.79
2022-08-21T16:20:51.297Z,37.07
2022-08-21T16:23:18.339Z,37.24
2022-08-21T16:25:45.490Z,38.11
2022-08-21T16:28:15.643Z,37.52
2022-08-21T16:30:45.031Z,37.52
2022-08-21T16:33:23.726Z,36.08
2022-08-21T16:35:50.624Z,38.34
2022-08-21T16:38:17.348Z,38.26
2022-08-21T16:40:44.255Z,37.67
2022-08-21T16:43:11.078Z,35.49
2022-08-21T16:45:39.140Z,33.85
2022-08-21T16:48:05.909Z,35.62
2022-08-21T16:50:32.551Z,34.16
2022-08-21T16:52:59.231Z,35.01
2022-08-21T16:55:26.074Z,36.44
2022-08-21T16:57:54.318Z,37.13
2022-08-21T17:00:21.061Z,38.05
2022-08-21T17:02:53.644Z,35.63
2022-08-21T17:05:20.411Z,35.97
2022-08-21T17:07:47.093Z,35.49
2022-08-21T17:10:16.558Z,36.13
2022-08-21T17:12:47.335Z,35.12
2022-08-21T17:15:22.477Z,35.76
2022-08-21T17:17:49.815Z,36.52
2022-08-21T17:20:16.625Z,37.25
2022-08-21T17:22:43.191Z,37.55
2022-08-21T17:25:10.520Z,37.13
2022-08-21T17:27:37.553Z,38.26
2022-08-21T17:30:06.546Z,38.38
2022-08-21T17:32:33.307Z,38.32
2022-08-21T17:34:59.947Z,38.14
2022-08-21T17:37:29.346Z,38.95
2022-08-21T17:39:56.647Z,39.64
2022-08-21T17:42:24.202Z,40.02
2022-08-21T17:44:50.884Z,40.06
2022-08-21T17:47:17.873Z,40.89
2022-08-21T17:49:44.438Z,40.55
2022-08-21T17:52:11.027Z,40.59
2022-08-21T17:54:37.707Z,40.43
2022-08-21T17:57:05.678Z,40.96
2022-08-21T17:59:32.628Z,41.21
2022-08-21T18:01:59.584Z,42.07
2022-08-21T18:04:26.182Z,42.20
2022-08-21T18:06:52.709Z,42.80
2022-08-21T18:09:19.357Z,43.43
2022-08-21T18:11:46.233Z,44.11
2022-08-21T18:14:13.530Z,44.25
2022-08-21T18:16:40.247Z,45.07
2022-08-21T18:19:11.675Z,44.70
2022-08-21T18:21:38.358Z,46.38
2022-08-21T18:24:05.295Z,46.61
2022-08-21T18:26:35.770Z,46.85
2022-08-21T18:29:05.965Z,46.75
2022-08-21T18:31:35.018Z,47.93
2022-08-21T18:34:07.778Z,47.67
2022-08-21T18:36:34.742Z,47.96
2022-08-21T18:39:25.682Z,48.41
2022-08-21T18:41:49.507Z,49.19
2022-08-21T18:44:18.133Z,49.61
2022-08-21T18:46:51.431Z,49.46
2022-08-21T18:49:18.154Z,50.55
2022-08-21T18:51:45.553Z,50.55
2022-08-21T18:54:12.901Z,51.02
2022-08-21T18:56:40.934Z,51.16
2022-08-21T18:59:08.897Z,51.62
2022-08-21T19:01:35.756Z,51.79
2022-08-21T19:04:02.483Z,51.97
2022-08-21T19:06:29.099Z,52.06
2022-08-21T19:08:55.961Z,52.69
2022-08-21T19:11:25.055Z,52.28
2022-08-21T19:13:52.922Z,52.59
2022-08-21T19:16:21.277Z,52.89
2022-08-21T19:18:48.323Z,53.10
2022-08-21T19:21:15.041Z,53.42
2022-08-21T19:23:42.469Z,53.57
2022-08-21T19:26:11.126Z,54.09
2022-08-21T19:28:41.725Z,54.31
2022-08-21T19:31:24.006Z,54.19
2022-08-21T19:33:57.683Z,55.01
2022-08-21T19:36:34.436Z,55.05
2022-08-21T19:39:01.486Z,55.68
2022-08-21T19:41:37.134Z,55.58
2022-08-21T19:44:07.150Z,55.55
2022-08-21T19:46:37.357Z,55.86
2022-08-21T19:49:06.890Z,56.27
2022-08-21T19:51:35.250Z,56.30
2022-08-21T19:54:02.325Z,56.64
2022-08-21T19:56:32.375Z,56.57
2022-08-21T19:59:03.069Z,56.82
2022-08-21T20:01:32.745Z,56.98
2022-08-21T20:03:59.653Z,57.21
2022-08-21T20:06:26.616Z,57.33
2022-08-21T20:08:54.479Z,57.73
2022-08-21T20:11:32.944Z,57.86
2022-08-21T20:14:00.917Z,57.60
2022-08-21T20:16:29.002Z,57.88
2022-08-21T20:18:55.553Z,57.04
2022-08-21T20:21:23.716Z,58.08
2022-08-21T20:23:50.384Z,58.09
2022-08-21T20:26:18.848Z,58.13
2022-08-21T20:28:46.012Z,58.36
2022-08-21T20:31:17.167Z,58.33
2022-08-21T20:33:46.371Z,58.99
2022-08-21T20:36:17.031Z,59.01
2022-08-21T20:38:44.208Z,58.99
2022-08-21T20:41:17.962Z,59.46
2022-08-21T20:43:57.707Z,59.25
2022-08-21T20:46:27.814Z,59.55
2022-08-21T20:48:54.730Z,59.56
2022-08-21T20:51:33.222Z,59.33
2022-08-21T20:54:18.117Z,59.56
2022-08-21T20:56:44.617Z,60.00
2022-08-21T20:59:32.864Z,59.51
2022-08-21T21:02:16.178Z,59.65
2022-08-21T21:04:51.666Z,59.83
2022-08-21T21:07:52.123Z,59.76
2022-08-21T21:10:43.028Z,60.08
2022-08-21T21:13:27.506Z,60.08
2022-08-21T21:16:05.798Z,60.46
2022-08-21T21:18:36.295Z,60.74
2022-08-21T21:21:15.387Z,60.70
2022-08-21T21:23:50.113Z,61.01
2022-08-21T21:26:30.467Z,60.60
2022-08-21T21:29:04.342Z,60.99
2022-08-21T21:31:37.016Z,61.06
2022-08-21T21:34:03.868Z,60.94
2022-08-21T21:36:43.874Z,60.97
2022-08-21T21:39:36.430Z,61.18
2022-08-21T21:42:18.387Z,61.09
2022-08-21T21:45:21.784Z,61.32
2022-08-21T21:48:12.582Z,61.34
2022-08-21T21:53:51.696Z,61.62
2022-08-21T21:56:40.371Z,61.48
2022-08-21T21:59:39.660Z,61.03
2022-08-21T22:02:17.381Z,61.53
2022-08-21T22:04:56.355Z,61.62
2022-08-21T22:07:37.269Z,61.71
2022-08-21T22:10:30.711Z,61.86
2022-08-21T22:13:14.257Z,61.85
2022-08-21T22:15:53.806Z,62.19
2022-08-21T22:18:25.908Z,62.32
2022-08-21T22:21:00.431Z,61.97
2022-08-21T22:23:31.873Z,62.18
2022-08-21T22:26:07.395Z,62.09
2022-08-21T22:28:38.937Z,62.46
2022-08-21T22:31:14.605Z,62.38
2022-08-21T22:33:41.971Z,62.47
2022-08-21T22:36:19.338Z,62.25
2022-08-21T22:38:46.776Z,62.49
2022-08-21T22:41:18.010Z,62.51
2022-08-21T22:44:02.466Z,62.07
2022-08-21T22:46:55.435Z,62.32
2022-08-21T22:49:31.272Z,62.66
2022-08-21T22:52:27.146Z,62.51
2022-08-21T22:54:57.246Z,62.75
2022-08-21T22:57:28.600Z,62.45
2022-08-21T23:00:17.620Z,62.41
2022-08-21T23:03:06.024Z,62.88
2022-08-21T23:05:43.153Z,63.06
2022-08-21T23:08:24.702Z,62.61
2022-08-21T23:10:56.186Z,63.03
2022-08-21T23:13:23.134Z,62.97
2022-08-21T23:15:52.607Z,62.79
2022-08-21T23:18:34.359Z,62.62
2022-08-21T23:21:19.246Z,62.77
2022-08-21T23:24:19.119Z,62.74
2022-08-21T23:27:18.341Z,63.05
2022-08-21T23:30:10.989Z,62.71
2022-08-21T23:36:22.840Z,63.10
2022-08-21T23:39:20.373Z,62.99
2022-08-21T23:42:10.426Z,63.25
2022-08-21T23:45:00.256Z,63.13
2022-08-21T23:47:56.778Z,63.38
2022-08-21T23:50:49.276Z,63.35
2022-08-21T23:53:33.681Z,63.60
2022-08-21T23:56:15.600Z,63.92
2022-08-21T23:59:22.544Z,63.50
